Wetterdaten: Woche 06.11.17 - 12.11.17 (KW45)
Datum Zeit Temp. A. Feuchte A. Luftdruck Regen Wind Richtung Taupunkt Windchill Windben
06.11.2017 00:00 10,0 C 69 % 1011,8 hPa 0,0 l/m 5,2 km/h N 4,6 C 10,0 C 21,7 km/h
06.11.2017 01:00 9,5 C 70 % 1012,0 hPa 0,0 l/m 5,1 km/h N 4,3 C 9,5 C 17,7 km/h
06.11.2017 02:00 9,2 C 71 % 1012,3 hPa 0,0 l/m 2,5 km/h N 4,2 C 9,2 C 12,5 km/h
06.11.2017 03:00 9,0 C 71 % 1012,5 hPa 0,0 l/m 1,3 km/h N 4,1 C 9,0 C 11,6 km/h
06.11.2017 04:00 8,8 C 73 % 1012,6 hPa 0,0 l/m 2,8 km/h N 4,1 C 8,8 C 13,7 km/h
06.11.2017 05:00 8,4 C 75 % 1013,1 hPa 0,0 l/m 0,5 km/h N 4,3 C 8,4 C 4,4 km/h
06.11.2017 06:00 8,2 C 77 % 1013,9 hPa 0,0 l/m 0,1 km/h N 4,3 C 8,2 C 2,0 km/h
06.11.2017 07:00 7,9 C 78 % 1014,6 hPa 0,0 l/m 0,9 km/h N 4,3 C 7,9 C 7,2 km/h
06.11.2017 08:00 7,9 C 78 % 1015,4 hPa 0,0 l/m 4,4 km/h N 4,3 C 7,9 C 14,9 km/h
06.11.2017 09:00 8,1 C 78 % 1016,0 hPa 0,0 l/m 6,2 km/h N 4,5 C 8,0 C 17,3 km/h
06.11.2017 10:00 8,1 C 78 % 1016,6 hPa 0,0 l/m 7,3 km/h N 4,5 C 7,3 C 16,9 km/h
06.11.2017 11:00 7,9 C 80 % 1017,1 hPa 0,0 l/m 3,7 km/h N 4,7 C 7,9 C 11,7 km/h
06.11.2017 12:00 7,7 C 82 % 1017,3 hPa 0,0 l/m 4,9 km/h N 4,7 C 7,7 C 13,7 km/h
06.11.2017 13:00 7,5 C 82 % 1017,5 hPa 0,0 l/m 4,2 km/h N 4,7 C 7,5 C 12,1 km/h
06.11.2017 14:00 7,3 C 83 % 1017,8 hPa 0,0 l/m 3,5 km/h N 4,6 C 7,3 C 14,5 km/h
06.11.2017 15:00 7,3 C 83 % 1018,5 hPa 0,3 l/m 4,0 km/h N 4,6 C 7,3 C 11,7 km/h
06.11.2017 16:00 7,3 C 83 % 1018,9 hPa 0,0 l/m 5,2 km/h N 4,6 C 7,3 C 12,1 km/h
06.11.2017 17:00 7,4 C 83 % 1019,3 hPa 0,0 l/m 4,7 km/h N 4,7 C 7,4 C 12,5 km/h
06.11.2017 18:00 7,5 C 83 % 1019,9 hPa 0,0 l/m 3,8 km/h N 4,8 C 7,5 C 10,1 km/h
06.11.2017 19:00 7,6 C 82 % 1020,3 hPa 0,0 l/m 2,5 km/h N 4,7 C 7,6 C 10,1 km/h
06.11.2017 20:00 7,7 C 82 % 1020,5 hPa 0,0 l/m 3,5 km/h N 4,8 C 7,7 C 10,1 km/h
06.11.2017 21:00 7,8 C 82 % 1020,8 hPa 0,0 l/m 4,5 km/h N 4,9 C 7,8 C 10,5 km/h
06.11.2017 22:00 7,8 C 82 % 1020,9 hPa 0,0 l/m 4,6 km/h N 4,9 C 7,8 C 11,3 km/h
06.11.2017 23:00 7,8 C 82 % 1021,2 hPa 0,0 l/m 3,1 km/h N 5,0 C 7,8 C 8,4 km/h
07.11.2017 00:00 7,8 C 82 % 1021,3 hPa 0,0 l/m 2,5 km/h N 4,9 C 7,8 C 8,9 km/h
07.11.2017 01:00 7,7 C 82 % 1021,5 hPa 0,0 l/m 2,1 km/h N 4,8 C 7,7 C 6,8 km/h
07.11.2017 02:00 7,7 C 83 % 1021,3 hPa 0,0 l/m 3,4 km/h N 5,0 C 7,7 C 8,4 km/h
07.11.2017 03:00 7,7 C 83 % 1021,1 hPa 0,0 l/m 2,3 km/h N 4,9 C 7,7 C 8,8 km/h
07.11.2017 04:00 7,5 C 83 % 1020,9 hPa 0,0 l/m 2,5 km/h N 4,8 C 7,5 C 7,6 km/h
07.11.2017 05:00 7,2 C 83 % 1020,7 hPa 0,0 l/m 1,0 km/h N 4,5 C 7,2 C 5,6 km/h
07.11.2017 06:00 7,5 C 83 % 1020,8 hPa 0,0 l/m 0,3 km/h N 4,8 C 7,5 C 3,6 km/h
07.11.2017 07:00 7,7 C 83 % 1021,0 hPa 0,0 l/m 0,4 km/h N 5,0 C 7,7 C 4,4 km/h
07.11.2017 08:00 7,9 C 83 % 1021,1 hPa 0,0 l/m 0,3 km/h N 5,2 C 7,9 C 3,6 km/h
07.11.2017 09:00 8,3 C 83 % 1021,0 hPa 0,0 l/m 0,3 km/h N 5,5 C 8,3 C 5,6 km/h
07.11.2017 10:00 8,9 C 82 % 1020,8 hPa 0,0 l/m 0,2 km/h N 6,0 C 8,9 C 2,0 km/h
07.11.2017 11:00 9,3 C 80 % 1020,1 hPa 0,0 l/m 0,1 km/h N 6,1 C 9,3 C 3,6 km/h
07.11.2017 12:00 9,8 C 79 % 1019,3 hPa 0,0 l/m 0,0 km/h N 6,2 C 9,8 C 2,4 km/h
07.11.2017 13:00 10,7 C 75 % 1018,6 hPa 0,0 l/m 0,1 km/h N 6,5 C 10,7 C 3,2 km/h
07.11.2017 14:00 11,5 C 72 % 1018,5 hPa 0,0 l/m 0,0 km/h N 6,6 C 11,5 C 1,2 km/h
07.11.2017 15:00 11,0 C 71 % 1018,3 hPa 0,0 l/m 0,0 km/h N 6,0 C 11,0 C 0,4 km/h
07.11.2017 16:00 9,9 C 76 % 1018,1 hPa 0,0 l/m 0,0 km/h N 5,8 C 9,9 C 0,0 km/h
07.11.2017 17:00 9,4 C 79 % 1018,0 hPa 0,0 l/m 0,0 km/h N 5,9 C 9,4 C 0,0 km/h
07.11.2017 18:00 9,1 C 80 % 1018,0 hPa 0,0 l/m 0,0 km/h N 5,8 C 9,1 C 0,0 km/h
07.11.2017 19:00 8,9 C 81 % 1018,1 hPa 0,0 l/m 0,0 km/h N 5,8 C 8,9 C 0,0 km/h
07.11.2017 20:00 8,8 C 82 % 1018,2 hPa 0,0 l/m 0,0 km/h N 5,9 C 8,8 C 0,0 km/h
07.11.2017 21:00 8,6 C 82 % 1018,1 hPa 0,0 l/m 0,0 km/h N 5,7 C 8,6 C 0,0 km/h
07.11.2017 22:00 8,7 C 83 % 1018,2 hPa 0,0 l/m 0,0 km/h N 5,8 C 8,7 C 0,4 km/h
07.11.2017 23:00 8,6 C 83 % 1017,7 hPa 0,5 l/m 0,0 km/h N 5,9 C 8,6 C 0,4 km/h
08.11.2017 00:00 8,3 C 83 % 1017,6 hPa 0,0 l/m 0,1 km/h N 5,6 C 8,3 C 2,0 km/h
08.11.2017 01:00 8,2 C 83 % 1017,4 hPa 0,0 l/m 0,0 km/h N 5,5 C 8,2 C 0,0 km/h
08.11.2017 02:00 8,0 C 83 % 1017,0 hPa 0,0 l/m 0,0 km/h N 5,3 C 8,0 C 0,0 km/h
08.11.2017 03:00 7,8 C 83 % 1016,8 hPa 0,0 l/m 0,0 km/h N 5,1 C 7,8 C 0,4 km/h
08.11.2017 04:00 7,7 C 83 % 1016,9 hPa 0,0 l/m 0,0 km/h N 5,0 C 7,7 C 0,4 km/h
08.11.2017 05:00 7,7 C 83 % 1016,8 hPa 0,0 l/m 0,0 km/h N 5,0 C 7,7 C 0,4 km/h
08.11.2017 06:00 7,7 C 83 % 1016,8 hPa 0,0 l/m 0,0 km/h N 5,0 C 7,7 C 0,4 km/h
08.11.2017 07:00 7,7 C 83 % 1017,0 hPa 0,3 l/m 0,0 km/h N 5,0 C 7,7 C 0,0 km/h
08.11.2017 08:00 7,7 C 83 % 1017,1 hPa 0,8 l/m 0,0 km/h N 5,0 C 7,7 C 0,8 km/h
08.11.2017 09:00 7,4 C 83 % 1017,1 hPa 0,3 l/m 0,0 km/h N 4,7 C 7,4 C 0,0 km/h
08.11.2017 10:00 7,5 C 83 % 1017,3 hPa 1,3 l/m 0,0 km/h N 4,8 C 7,5 C 0,0 km/h
08.11.2017 11:00 7,5 C 83 % 1017,3 hPa 0,3 l/m 0,0 km/h N 4,8 C 7,5 C 0,0 km/h
08.11.2017 12:00 7,6 C 83 % 1017,0 hPa 0,3 l/m 0,0 km/h N 4,9 C 7,6 C 0,0 km/h
08.11.2017 13:00 7,7 C 83 % 1016,9 hPa 0,3 l/m 0,0 km/h N 5,0 C 7,7 C 0,4 km/h
08.11.2017 14:00 7,5 C 83 % 1017,3 hPa 0,5 l/m 0,0 km/h N 4,8 C 7,5 C 0,0 km/h
08.11.2017 15:00 7,3 C 83 % 1017,4 hPa 0,0 l/m 0,0 km/h N 4,6 C 7,3 C 0,0 km/h
08.11.2017 16:00 7,2 C 83 % 1017,6 hPa 0,0 l/m 0,0 km/h N 4,5 C 7,2 C 0,0 km/h
08.11.2017 17:00 7,1 C 83 % 1017,9 hPa 0,3 l/m 0,0 km/h N 4,4 C 7,1 C 0,0 km/h
08.11.2017 18:00 7,1 C 83 % 1018,2 hPa 0,0 l/m 0,0 km/h N 4,4 C 7,1 C 0,0 km/h
08.11.2017 19:00 7,1 C 83 % 1018,7 hPa 0,0 l/m 0,0 km/h N 4,4 C 7,1 C 0,0 km/h
08.11.2017 20:00 7,1 C 83 % 1019,0 hPa 0,0 l/m 0,0 km/h N 4,5 C 7,1 C 0,0 km/h
08.11.2017 21:00 7,2 C 84 % 1019,4 hPa 0,0 l/m 0,0 km/h N 4,7 C 7,2 C 0,0 km/h
08.11.2017 22:00 7,2 C 84 % 1019,6 hPa 0,0 l/m 0,0 km/h N 4,7 C 7,2 C 0,0 km/h
08.11.2017 23:00 7,2 C 84 % 1019,6 hPa 0,3 l/m 0,0 km/h N 4,7 C 7,2 C 0,0 km/h
09.11.2017 00:00 7,1 C 84 % 1019,7 hPa 0,0 l/m 0,0 km/h N 4,6 C 7,1 C 0,0 km/h
09.11.2017 01:00 6,6 C 84 % 1019,9 hPa 0,0 l/m 0,0 km/h N 4,1 C 6,6 C 0,0 km/h
09.11.2017 02:00 5,6 C 84 % 1020,3 hPa 0,0 l/m 0,0 km/h N 3,1 C 5,6 C 0,0 km/h
09.11.2017 03:00 4,5 C 84 % 1020,7 hPa 0,0 l/m 0,0 km/h N 2,1 C 4,5 C 0,0 km/h
09.11.2017 04:00 4,4 C 84 % 1020,8 hPa 0,0 l/m 0,0 km/h N 1,9 C 4,4 C 0,4 km/h
09.11.2017 05:00 4,9 C 84 % 1021,0 hPa 0,0 l/m 0,0 km/h N 2,4 C 4,9 C 0,4 km/h
09.11.2017 06:00 5,0 C 84 % 1021,1 hPa 0,0 l/m 0,1 km/h N 2,5 C 5,0 C 1,6 km/h
09.11.2017 07:00 4,8 C 84 % 1021,5 hPa 0,0 l/m 0,0 km/h N 2,3 C 4,8 C 1,2 km/h
09.11.2017 08:00 5,2 C 84 % 1022,2 hPa 0,0 l/m 0,0 km/h N 2,7 C 5,2 C 0,8 km/h
09.11.2017 09:00 6,4 C 84 % 1022,4 hPa 0,0 l/m 0,0 km/h N 3,8 C 6,4 C 0,4 km/h
09.11.2017 10:00 7,5 C 84 % 1022,6 hPa 0,0 l/m 0,0 km/h N 5,0 C 7,5 C 0,4 km/h
09.11.2017 11:00 8,2 C 84 % 1022,6 hPa 0,0 l/m 0,0 km/h N 5,7 C 8,2 C 0,0 km/h
09.11.2017 12:00 8,6 C 83 % 1022,2 hPa 0,0 l/m 0,0 km/h N 5,9 C 8,6 C 0,4 km/h
09.11.2017 13:00 9,2 C 81 % 1021,9 hPa 0,0 l/m 1,2 km/h N 6,2 C 9,2 C 7,7 km/h
09.11.2017 14:00 9,8 C 75 % 1021,8 hPa 0,0 l/m 2,4 km/h N 5,6 C 9,8 C 10,1 km/h
09.11.2017 15:00 9,6 C 76 % 1021,9 hPa 0,0 l/m 1,3 km/h N 5,6 C 9,6 C 6,8 km/h
09.11.2017 16:00 9,3 C 76 % 1022,2 hPa 0,0 l/m 0,7 km/h N 5,3 C 9,3 C 5,6 km/h
09.11.2017 17:00 9,1 C 74 % 1022,8 hPa 0,0 l/m 1,5 km/h N 4,7 C 9,1 C 6,8 km/h
09.11.2017 18:00 9,2 C 72 % 1022,9 hPa 0,0 l/m 1,8 km/h N 4,5 C 9,2 C 9,7 km/h
09.11.2017 19:00 9,0 C 73 % 1023,2 hPa 0,0 l/m 0,0 km/h N 4,4 C 9,0 C 0,8 km/h
09.11.2017 20:00 8,7 C 75 % 1023,5 hPa 0,0 l/m 0,2 km/h N 4,5 C 8,7 C 4,4 km/h
09.11.2017 21:00 8,8 C 75 % 1023,4 hPa 0,0 l/m 0,1 km/h N 4,7 C 8,8 C 2,8 km/h
09.11.2017 22:00 8,5 C 77 % 1023,5 hPa 0,0 l/m 0,1 km/h N 4,6 C 8,5 C 2,4 km/h
09.11.2017 23:00 8,7 C 75 % 1023,5 hPa 0,0 l/m 0,2 km/h N 4,6 C 8,7 C 5,6 km/h
10.11.2017 00:00 8,8 C 74 % 1023,4 hPa 0,0 l/m 0,1 km/h N 4,4 C 8,8 C 2,4 km/h
10.11.2017 01:00 8,4 C 76 % 1023,3 hPa 0,0 l/m 0,2 km/h N 4,4 C 8,4 C 3,6 km/h
10.11.2017 02:00 8,5 C 73 % 1023,2 hPa 0,0 l/m 0,4 km/h N 3,9 C 8,5 C 6,4 km/h
10.11.2017 03:00 8,4 C 70 % 1022,7 hPa 0,0 l/m 0,3 km/h N 3,4 C 8,4 C 7,3 km/h
10.11.2017 04:00 8,7 C 67 % 1022,1 hPa 0,0 l/m 1,8 km/h N 3,0 C 8,7 C 10,1 km/h
10.11.2017 05:00 8,5 C 69 % 1021,5 hPa 0,0 l/m 0,2 km/h N 3,1 C 8,5 C 4,0 km/h
10.11.2017 06:00 8,1 C 71 % 1021,4 hPa 0,0 l/m 0,2 km/h N 3,2 C 8,1 C 1,6 km/h
10.11.2017 07:00 7,8 C 73 % 1021,6 hPa 0,0 l/m 0,1 km/h N 3,3 C 7,8 C 2,0 km/h
10.11.2017 08:00 7,7 C 74 % 1021,8 hPa 0,0 l/m 0,0 km/h N 3,4 C 7,7 C 0,0 km/h
10.11.2017 09:00 7,8 C 75 % 1021,6 hPa 0,0 l/m 0,1 km/h N 3,7 C 7,8 C 0,8 km/h
10.11.2017 10:00 8,2 C 74 % 1021,2 hPa 0,0 l/m 0,0 km/h N 3,9 C 8,2 C 1,2 km/h
10.11.2017 11:00 8,8 C 70 % 1020,2 hPa 0,0 l/m 0,3 km/h N 3,7 C 8,8 C 3,6 km/h
10.11.2017 12:00 9,6 C 68 % 1019,1 hPa 0,0 l/m 0,1 km/h N 4,0 C 9,6 C 0,8 km/h
10.11.2017 13:00 10,4 C 62 % 1018,0 hPa 0,0 l/m 0,4 km/h N 3,5 C 10,4 C 4,0 km/h
10.11.2017 14:00 10,4 C 57 % 1017,3 hPa 0,0 l/m 3,2 km/h N 2,4 C 10,5 C 13,7 km/h
10.11.2017 15:00 10,1 C 58 % 1016,9 hPa 0,0 l/m 0,6 km/h N 2,2 C 10,1 C 7,2 km/h
10.11.2017 16:00 9,2 C 61 % 1016,5 hPa 0,0 l/m 0,6 km/h N 2,1 C 9,2 C 2,8 km/h
10.11.2017 17:00 8,8 C 64 % 1016,2 hPa 0,0 l/m 0,3 km/h N 2,4 C 8,8 C 2,8 km/h
10.11.2017 18:00 8,2 C 69 % 1016,0 hPa 0,0 l/m 0,0 km/h N 2,8 C 8,2 C 0,8 km/h
10.11.2017 19:00 7,5 C 72 % 1015,5 hPa 0,0 l/m 0,0 km/h N 2,7 C 7,5 C 0,4 km/h
10.11.2017 20:00 7,2 C 75 % 1015,0 hPa 0,0 l/m 0,0 km/h N 3,0 C 7,2 C 0,0 km/h
10.11.2017 21:00 7,6 C 75 % 1014,6 hPa 0,0 l/m 0,1 km/h N 3,4 C 7,6 C 3,2 km/h
10.11.2017 22:00 8,9 C 71 % 1014,0 hPa 0,0 l/m 4,1 km/h N 3,9 C 8,9 C 23,7 km/h
10.11.2017 23:00 9,0 C 71 % 1013,6 hPa 0,0 l/m 6,3 km/h N 4,0 C 8,6 C 27,8 km/h
11.11.2017 00:00 8,9 C 72 % 1013,3 hPa 0,0 l/m 5,9 km/h N 4,1 C 8,9 C 31,0 km/h
11.11.2017 01:00 8,8 C 73 % 1013,6 hPa 0,0 l/m 8,0 km/h N 4,2 C 7,6 C 29,8 km/h
11.11.2017 02:00 8,8 C 73 % 1013,2 hPa 0,0 l/m 8,8 km/h N 4,1 C 6,9 C 28,2 km/h
11.11.2017 03:00 8,9 C 74 % 1013,3 hPa 0,0 l/m 4,5 km/h N 4,4 C 8,6 C 16,5 km/h
11.11.2017 04:00 8,4 C 79 % 1013,3 hPa 0,3 l/m 2,7 km/h N 4,9 C 8,4 C 15,7 km/h
11.11.2017 05:00 8,3 C 79 % 1013,3 hPa 0,0 l/m 2,5 km/h N 4,8 C 8,3 C 12,1 km/h
11.11.2017 06:00 8,0 C 78 % 1013,9 hPa 0,0 l/m 1,9 km/h N 4,4 C 8,0 C 9,6 km/h
11.11.2017 07:00 7,1 C 77 % 1014,7 hPa 0,0 l/m 0,6 km/h N 3,4 C 7,1 C 4,0 km/h
11.11.2017 08:00 7,3 C 73 % 1015,0 hPa 0,0 l/m 3,0 km/h N 2,8 C 7,3 C 17,3 km/h
11.11.2017 09:00 8,0 C 66 % 1014,7 hPa 0,0 l/m 6,3 km/h N 2,1 C 7,8 C 24,1 km/h
11.11.2017 10:00 8,2 C 61 % 1014,4 hPa 0,0 l/m 6,7 km/h N 1,1 C 7,5 C 24,1 km/h
11.11.2017 11:00 8,4 C 63 % 1014,4 hPa 0,0 l/m 5,6 km/h N 1,7 C 8,1 C 22,5 km/h
11.11.2017 12:00 8,4 C 59 % 1014,0 hPa 0,0 l/m 6,7 km/h N 0,8 C 7,8 C 22,5 km/h
11.11.2017 13:00 9,1 C 55 % 1013,6 hPa 0,0 l/m 5,3 km/h N 0,6 C 9,1 C 19,7 km/h
11.11.2017 14:00 9,1 C 57 % 1012,8 hPa 0,0 l/m 3,6 km/h N 1,0 C 9,1 C 14,9 km/h
11.11.2017 15:00 8,9 C 56 % 1012,1 hPa 0,0 l/m 2,0 km/h N 0,7 C 8,9 C 11,3 km/h
11.11.2017 16:00 8,5 C 57 % 1011,4 hPa 0,0 l/m 0,1 km/h N 0,5 C 8,5 C 2,0 km/h
11.11.2017 17:00 8,0 C 61 % 1010,8 hPa 0,0 l/m 0,0 km/h N 1,0 C 8,0 C 0,0 km/h
11.11.2017 18:00 7,7 C 69 % 1010,1 hPa 0,0 l/m 0,2 km/h N 2,2 C 7,7 C 3,6 km/h
11.11.2017 19:00 7,7 C 77 % 1009,4 hPa 0,3 l/m 0,4 km/h N 3,9 C 7,7 C 3,2 km/h
11.11.2017 20:00 7,2 C 81 % 1008,7 hPa 0,5 l/m 0,0 km/h N 4,1 C 7,2 C 1,2 km/h
11.11.2017 21:00 7,0 C 82 % 1008,1 hPa 0,5 l/m 0,0 km/h N 4,2 C 7,0 C 0,8 km/h
11.11.2017 22:00 6,9 C 83 % 1007,3 hPa 0,8 l/m 0,0 km/h N 4,2 C 6,9 C 0,8 km/h
11.11.2017 23:00 6,7 C 83 % 1006,7 hPa 0,3 l/m 0,0 km/h N 4,0 C 6,7 C 0,4 km/h
12.11.2017 00:00 6,6 C 83 % 1006,0 hPa 0,3 l/m 0,0 km/h N 3,9 C 6,6 C 0,8 km/h
12.11.2017 01:00 7,9 C 83 % 1005,5 hPa 0,0 l/m 2,7 km/h N 5,1 C 7,9 C 18,5 km/h
12.11.2017 02:00 9,9 C 81 % 1005,2 hPa 0,0 l/m 6,2 km/h N 6,7 C 9,7 C 23,3 km/h
12.11.2017 03:00 9,9 C 79 % 1005,7 hPa 0,3 l/m 9,8 km/h N 6,5 C 7,6 C 25,3 km/h
12.11.2017 04:00 8,1 C 81 % 1006,8 hPa 0,0 l/m 5,3 km/h N 5,0 C 8,1 C 17,3 km/h
12.11.2017 05:00 7,5 C 81 % 1007,5 hPa 0,0 l/m 3,8 km/h N 4,5 C 7,5 C 12,9 km/h
12.11.2017 06:00 6,9 C 81 % 1008,0 hPa 0,3 l/m 0,6 km/h N 3,8 C 6,9 C 3,6 km/h
12.11.2017 07:00 6,3 C 81 % 1008,7 hPa 0,5 l/m 2,6 km/h N 3,2 C 6,3 C 13,3 km/h
12.11.2017 08:00 6,0 C 82 % 1008,8 hPa 0,3 l/m 0,2 km/h N 3,1 C 6,0 C 2,8 km/h
12.11.2017 09:00 6,1 C 83 % 1008,0 hPa 0,0 l/m 1,3 km/h N 3,4 C 6,1 C 5,6 km/h
12.11.2017 10:00 6,5 C 82 % 1008,0 hPa 0,0 l/m 0,4 km/h N 3,7 C 6,5 C 2,4 km/h
12.11.2017 11:00 6,9 C 82 % 1006,9 hPa 0,3 l/m 0,5 km/h N 4,0 C 6,9 C 4,0 km/h
12.11.2017 12:00 7,1 C 82 % 1005,5 hPa 0,5 l/m 0,1 km/h N 4,1 C 7,1 C 2,4 km/h
12.11.2017 13:00 6,9 C 82 % 1004,1 hPa 0,0 l/m 0,2 km/h N 4,0 C 6,9 C 5,2 km/h
12.11.2017 14:00 6,5 C 82 % 1002,6 hPa 0,0 l/m 0,3 km/h N 3,6 C 6,5 C 5,6 km/h
12.11.2017 15:00 6,4 C 82 % 1001,5 hPa 0,0 l/m 0,4 km/h N 3,6 C 6,4 C 3,2 km/h
12.11.2017 16:00 6,4 C 82 % 1000,3 hPa 0,3 l/m 0,1 km/h N 3,5 C 6,4 C 2,8 km/h
12.11.2017 17:00 6,2 C 83 % 998,8 hPa 0,3 l/m 0,1 km/h N 3,5 C 6,2 C 2,4 km/h
12.11.2017 18:00 6,0 C 83 % 997,8 hPa 0,0 l/m 0,0 km/h N 3,4 C 6,0 C 1,2 km/h
12.11.2017 19:00 5,8 C 83 % 996,5 hPa 0,0 l/m 0,0 km/h N 3,1 C 5,8 C 0,0 km/h
12.11.2017 20:00 5,6 C 83 % 995,7 hPa 0,0 l/m 0,0 km/h N 2,9 C 5,6 C 0,4 km/h
12.11.2017 21:00 5,8 C 83 % 997,1 hPa 0,0 l/m 2,7 km/h N 3,1 C 5,2 C 9,6 km/h
12.11.2017 22:00 7,4 C 80 % 997,3 hPa 0,0 l/m 12,9 km/h N 4,2 C 3,1 C 38,6 km/h
12.11.2017 23:00 8,2 C 71 % 997,5 hPa 0,0 l/m 15,0 km/h N 3,3 C 3,0 C 41,8 km/h
Min-Datum _ 09.11.17 11.11.17 12.11.17 - 06.11.17 - 11.11.17 12.11.17 06.11.17
_ Min-Zeit 03:45 13:00 20:15 - 05:30 - 16:00 23:30 06:15
Minimum _ 4,3 C 55 % 995,6 hPa - 0,0 km/h - 0,2 C 2,1 C 0,0 km/h
Max-Datum _ 07.11.17 08.11.17 09.11.17 08.11.17 12.11.17 - 07.11.17 07.11.17 12.11.17
_ Max-Zeit 14:30 20:45 20:30 10:15 23:30 - 14:00 14:30 23:00
Maximum _ 11,6 C 84 % 1023,6 hPa 1,3 l/m 17,1 km/h
N
- 6,8 C 11,6 C 46,7 km/h
N
Durchschnitt _ 7,9 C 78 % 1015,8 hPa #10,7 l/m 1,6 km/h N 4,2 C 7,8 C 6,7 km/h